Latest Weather Observations for Derby

IDW60801

Issued at 8:02 pm WST Thursday 5 May 2016 (issued every 30 minutes, with the page automatically refreshed every 10 minutes)

About weather observations | Map of weather stations | Latest weather observations for WA | Other Formats
Station Details ID: 003032 Name: DERBY AERO Lat: -17.37 Lon: 123.66 Height: 6.2 m
Data from the previous 72 hours. | See also: Recent months at Derby
Date/Time
WST
Temp
°C
App
Temp
°C
Dew
Point
Rel
Hum
%
Delta-T
°C
Wind Press
QNH
hPa
Press
MSL
hPa
Rain
since 9 am
mm
Dir
 
Spd
km/h
Gust
km/h
Spd
kts
Gust
kts
05/08:00pm 29.8 33.4 22.3 64 5.1 SW 7 11 4 6 1010.8 1010.8 0.0
05/07:30pm 29.7 33.7 22.7 66 4.8 NE 6 11 3 6 1010.4 1010.4 0.0
05/07:00pm 30.4 34.9 22.3 62 5.5 ESE 2 6 1 3 1009.9 1009.9 0.0
05/06:30pm 30.8 33.8 21.9 59 6.0 SE 9 13 5 7 1009.3 1009.3 0.0
05/06:00pm 30.8 33.9 22.1 59 5.9 S 9 11 5 6 1009.1 1009.1 0.0
05/05:30pm 31.2 33.2 22.2 58 6.1 SSW 15 17 8 9 1008.9 1008.9 0.0
05/05:00pm 31.5 33.3 22.5 59 6.2 SSW 17 22 9 12 1008.6 1008.6 0.0
05/04:30pm 32.4 35.4 21.9 54 7.1 S 9 15 5 8 1008.5 1008.5 0.0
05/04:00pm 32.1 34.3 21.9 54 6.9 SE 13 19 7 10 1008.2 1008.2 0.0
05/03:30pm 33.1 34.6 21.3 50 8.0 SE 15 20 8 11 1008.2 1008.2 0.0
05/03:00pm 33.4 35.6 21.2 48 8.2 SSE 11 17 6 9 1008.1 1008.1 0.0
05/02:30pm 33.7 35.7 20.8 46 8.7 SSE 11 20 6 11 1008.2 1008.2 0.0
05/02:00pm 33.6 35.6 20.7 46 8.7 ESE 11 17 6 9 1008.4 1008.4 0.0
05/01:30pm 34.1 36.1 20.8 45 8.9 ENE 11 17 6 9 1008.9 1008.9 0.0
05/01:00pm 33.7 35.5 21.2 48 8.4 ENE 13 19 7 10 1009.4 1009.4 0.0
05/12:30pm 33.7 36.1 21.5 49 8.3 NE 11 19 6 10 1009.7 1009.7 0.0
05/12:00pm 33.4 36.1 22.2 52 7.7 SE 11 19 6 10 1010.5 1010.5 0.0
05/11:30am 31.8 33.4 22.2 56 6.5 SSE 17 24 9 13 1011.1 1011.1 0.0
05/11:00am 31.8 33.5 23.1 60 6.0 SSE 19 28 10 15 1011.7 1011.7 0.0
05/10:30am 31.2 32.6 21.9 57 6.3 SE 17 22 9 12 1012.6 1012.6 0.0
05/10:00am 30.9 32.5 22.2 59 5.9 SSE 17 22 9 12 1013.0 1013.0 0.0
05/09:30am 30.5 31.6 21.9 60 5.8 SSE 19 24 10 13 1013.3 1013.3 0.0
05/09:00am 29.5 31.1 22.2 65 4.9 SE 17 24 9 13 1013.4 1013.4 3.4
05/08:30am 28.1 30.0 22.1 70 4.0 SE 15 17 8 9 1013.1 1013.1 3.4
05/08:00am 27.0 29.2 22.6 77 3.0 SE 15 17 8 9 1012.9 1012.9 3.4
05/07:30am 26.7 30.5 23.4 82 2.3 E 9 13 5 7 1012.8 1012.8 3.4
05/07:00am 26.1 30.2 24.0 88 1.4 ESE 9 11 5 6 1012.1 1012.1 3.4
05/06:30am 25.8 29.8 24.4 92 1.0 ESE 11 13 6 7 1012.0 1012.0 3.4
05/06:00am 25.6 29.6 24.4 93 0.8 ESE 11 13 6 7 1011.4 1011.4 3.4
05/05:30am 25.5 30.4 24.3 93 0.8 ESE 6 9 3 5 1011.0 1011.0 3.4
05/05:00am 25.5 30.3 24.1 92 1.0 E 6 7 3 4 1010.9 1010.9 3.4
05/04:30am 25.3 31.1 23.9 92 1.0 CALM 0 0 0 0 1011.1 1011.1 3.4
05/04:00am 25.3 30.1 24.1 93 0.8 N 6 9 3 5 1010.9 1010.9 3.4
05/03:30am 25.3 30.1 24.1 93 0.8 S 6 9 3 5 1010.6 1010.6 3.4
05/03:00am 25.3 27.0 23.4 89 1.3 N 20 28 11 15 1010.8 1010.8 1.0
05/02:30am 27.3 32.1 25.1 88 1.5 ENE 9 15 5 8 1010.5 1010.5 0.4
05/02:00am 27.3 32.4 24.9 87 1.7 NE 7 11 4 6 1010.5 1010.5 0.4
05/01:30am 28.1 32.8 21.9 69 4.2 CALM 0 0 0 0 1010.7 1010.7 0.0
05/01:00am 28.1 31.0 20.6 63 5.0 ESE 6 7 3 4 1010.9 1010.9 0.0
05/12:30am 28.3 32.8 21.6 67 4.5 CALM 0 0 0 0 1011.2 1011.2 0.0
05/12:00am 28.3 32.8 21.6 67 4.5 CALM 0 0 0 0 1011.4 1011.4 0.0
 
Date/Time
WST
Temp
°C
App
Temp
°C
Dew
Point
Rel
Hum
%
Delta-T
°C
Wind Press
QNH
hPa
Press
MSL
hPa
Rain
since 9 am
mm
Dir
 
Spd
km/h
Gust
km/h
Spd
kts
Gust
kts
04/11:30pm 28.3 32.7 21.3 65 4.7 CALM 0 0 0 0 1011.7 1011.7 0.0
04/11:00pm 28.4 32.6 20.9 64 5.0 CALM 0 0 0 0 1011.9 1011.9 0.0
04/10:30pm 28.3 31.3 20.8 63 5.0 ENE 6 7 3 4 1012.0 1012.0 0.0
04/10:00pm 28.9 32.3 20.9 62 5.3 E 4 7 2 4 1012.1 1012.1 0.0
04/09:30pm 28.8 33.1 21.1 63 5.1 CALM 0 0 0 0 1011.9 1011.9 0.0
04/09:00pm 29.0 31.7 20.7 61 5.5 NNW 7 9 4 5 1011.8 1011.8 0.0
04/08:30pm 29.2 31.3 20.9 61 5.5 NW 11 13 6 7 1011.4 1011.4 0.0
04/08:00pm 29.5 32.1 21.2 61 5.5 W 9 11 5 6 1011.1 1011.1 0.0
04/07:30pm 30.0 32.4 22.2 63 5.3 WSW 13 17 7 9 1010.7 1010.7 0.0
04/07:00pm 30.8 32.1 22.7 62 5.5 NW 20 26 11 14 1010.2 1010.2 0.0
04/06:30pm 30.9 34.0 24.1 67 4.7 NNW 15 20 8 11 1010.0 1010.0 0.0
04/06:00pm 30.8 35.5 25.6 74 3.7 NNW 11 15 6 8 1010.0 1010.0 0.0
04/05:30pm 31.2 32.8 25.1 70 4.3 NW 26 33 14 18 1009.5 1009.5 0.0
04/05:00pm 31.7 33.4 25.3 69 4.5 NW 26 32 14 17 1008.9 1008.9 0.0
04/04:30pm 32.3 33.1 25.1 65 5.1 NW 30 35 16 19 1008.3 1008.3 0.0
04/04:00pm 32.0 32.1 24.6 65 5.2 NW 32 37 17 20 1007.9 1007.9 0.0
04/03:30pm 33.1 34.0 24.6 61 6.0 NNW 28 35 15 19 1007.7 1007.7 0.0
04/03:00pm 33.9 34.9 24.2 57 6.8 NW 26 32 14 17 1007.9 1007.9 0.0
04/02:30pm 35.3 34.7 20.4 41 10.0 NW 24 30 13 16 1008.2 1008.2 0.0
04/02:00pm 35.5 35.1 19.4 38 10.7 NW 20 28 11 15 1008.1 1008.1 0.0
04/01:30pm 35.8 36.7 22.0 44 9.5 NW 20 28 11 15 1008.5 1008.5 0.0
04/01:00pm 35.4 35.6 21.3 44 9.6 NW 22 30 12 16 1009.1 1009.1 0.0
04/12:30pm 34.7 35.3 22.1 48 8.6 NW 22 32 12 17 1009.6 1009.6 0.0
04/12:00pm 34.5 34.8 22.9 51 8.0 NW 26 32 14 17 1010.0 1010.0 0.0
04/11:30am 34.8 34.7 22.2 48 8.6 NW 26 33 14 18 1010.4 1010.4 0.0
04/11:00am 34.5 34.3 21.2 46 9.0 NNW 24 32 13 17 1011.0 1011.0 0.0
04/10:30am 34.1 33.8 21.9 49 8.3 NNW 26 35 14 19 1011.5 1011.5 0.0
04/10:00am 32.7 34.6 25.0 64 5.4 NNW 24 35 13 19 1011.9 1011.9 0.0
04/09:30am 33.2 33.7 22.0 51 7.6 NNW 22 32 12 17 1012.2 1012.2 0.0
04/09:00am 32.3 34.0 23.0 58 6.4 NNW 19 28 10 15 1012.3 1012.3 0.0
04/08:30am 31.8 32.8 22.2 56 6.5 NW 20 26 11 14 1012.2 1012.2 0.0
04/08:00am 31.3 32.7 22.9 61 5.8 NW 20 26 11 14 1012.0 1012.0 0.0
04/07:30am 30.5 32.4 23.7 67 4.7 NW 20 24 11 13 1011.6 1011.6 0.0
04/07:00am 29.7 32.1 23.6 69 4.2 NW 17 20 9 11 1011.4 1011.4 0.0
04/06:30am 29.1 31.4 23.5 72 3.9 NW 17 20 9 11 1011.0 1011.0 0.0
04/06:00am 28.5 31.2 23.4 74 3.5 NW 15 19 8 10 1010.7 1010.7 0.0
04/05:30am 28.6 31.7 24.2 77 3.1 NNW 15 19 8 10 1010.4 1010.4 0.0
04/05:00am 28.8 31.5 24.1 76 3.3 NNW 17 20 9 11 1010.0 1010.0 0.0
04/04:30am 28.8 31.5 24.1 76 3.3 NW 17 20 9 11 1009.8 1009.8 0.0
04/04:00am 28.7 31.9 24.3 77 3.1 NNW 15 17 8 9 1009.6 1009.6 0.0
04/03:30am 27.9 31.2 22.6 73 3.6 NNW 9 11 5 6 1009.7 1009.7 0.0
04/03:00am 28.1 31.3 22.3 70 3.9 NNW 9 13 5 7 1009.5 1009.5 0.0
04/02:30am 28.4 31.1 22.9 72 3.7 NNW 13 17 7 9 1009.2 1009.2 0.0
04/02:00am 27.9 30.0 21.7 69 4.2 NNW 13 15 7 8 1009.3 1009.3 0.0
04/01:30am 27.7 30.7 21.3 68 4.3 N 7 9 4 5 1009.4 1009.4 0.0
04/01:00am 28.1 30.5 20.9 65 4.8 NNW 9 11 5 6 1009.5 1009.5 0.0
04/12:30am 28.5 31.0 21.0 64 5.0 W 9 9 5 5 1009.8 1009.8 0.0
04/12:00am 28.6 31.4 21.6 66 4.7 NW 9 9 5 5 1010.1 1010.1 0.0
 
Date/Time
WST
Temp
°C
App
Temp
°C
Dew
Point
Rel
Hum
%
Delta-T
°C
Wind Press
QNH
hPa
Press
MSL
hPa
Rain
since 9 am
mm
Dir
 
Spd
km/h
Gust
km/h
Spd
kts
Gust
kts
03/11:30pm 29.0 31.9 21.7 64 4.9 NW 9 11 5 6 1010.2 1010.2 0.0
03/11:00pm 29.3 31.8 21.8 64 5.1 NW 11 13 6 7 1010.3 1010.3 0.0
03/10:30pm 29.4 31.8 21.6 63 5.2 NW 11 13 6 7 1010.5 1010.5 0.0
03/10:00pm 29.8 32.3 21.7 61 5.5 NNW 11 13 6 7 1010.6 1010.6 0.0
03/09:30pm 30.5 32.8 21.3 58 6.2 NW 11 15 6 8 1010.5 1010.5 0.0
03/09:00pm 31.1 32.5 21.9 58 6.2 WNW 17 22 9 12 1010.6 1010.6 0.0
03/08:30pm 31.2 33.2 22.2 58 6.1 WNW 15 20 8 11 1010.4 1010.4 0.0
03/08:00pm 31.5 32.8 21.7 56 6.6 WNW 17 20 9 11 1010.0 1010.0 0.0
03/07:30pm 31.3 33.6 22.0 57 6.3 NNW 13 17 7 9 1009.9 1009.9 0.0
03/07:00pm 31.7 33.1 21.8 55 6.7 NW 17 20 9 11 1009.3 1009.3 0.0
03/06:30pm 32.1 33.3 22.5 57 6.6 NW 20 24 11 13 1008.8 1008.8 0.0
03/06:00pm 33.4 34.3 21.9 51 7.8 NW 20 26 11 14 1008.2 1008.2 0.0
03/05:30pm 34.4 34.3 19.6 41 9.8 NNW 19 22 10 12 1007.9 1007.9 0.0
03/05:00pm 34.8 34.0 20.0 42 9.9 NNW 24 28 13 15 1007.7 1007.7 0.0
03/04:30pm 36.9 33.9 14.8 26 13.8 NW 24 30 13 16 1007.2 1007.2 0.0
03/04:00pm 37.5 34.3 15.3 26 14.0 NW 26 32 14 17 1007.1 1007.1 0.0
03/03:30pm 39.2 35.1 11.3 19 16.7 WSW 24 33 13 18 1006.7 1006.7 0.0
03/03:00pm 39.7 36.4 11.7 19 17.0 WSW 20 37 11 20 1006.7 1006.7 0.0
03/02:30pm 40.3 37.8 12.2 19 17.1 SSW 17 26 9 14 1007.0 1007.0 0.0
03/02:00pm 39.0 36.4 12.0 20 16.4 SW 17 22 9 12 1007.3 1007.3 0.0
03/01:30pm 39.2 36.9 12.9 21 16.1 SW 17 24 9 13 1007.7 1007.7 0.0
03/01:00pm 39.2 37.0 12.1 20 16.5 WSW 15 28 8 15 1008.1 1008.1 0.0
03/12:30pm 38.2 36.2 12.7 21 15.5 SSW 15 19 8 10 1008.7 1008.7 0.0
03/12:00pm 38.5 37.5 12.3 21 15.9 SW 9 20 5 11 1009.2 1009.2 0.0
03/11:30am 37.3 35.8 12.0 22 15.2 S 11 19 6 10 1009.7 1009.7 0.0
03/11:00am 37.0 36.8 13.1 24 14.6 SSE 6 17 3 9 1010.2 1010.2 0.0
03/10:30am 36.3 35.9 13.1 25 14.1 SSW 7 13 4 7 1010.8 1010.8 0.0
03/10:00am 34.8 35.9 16.6 33 11.6 SSW 6 9 3 5 1011.3 1011.3 0.0
03/09:30am 33.5 34.5 16.4 36 10.8 SSW 6 9 3 5 1011.6 1011.6 0.0
03/09:00am 32.2 33.9 18.0 42 9.1 S 6 9 3 5 1011.8 1011.8 0.0
03/08:30am 30.4 31.9 18.8 50 7.5 SSW 9 13 5 7 1011.8 1011.8 0.0
03/08:00am 29.5 30.9 19.5 55 6.5 SSW 11 13 6 7 1011.5 1011.5 0.0
03/07:30am 27.7 29.9 20.3 64 4.9 SSW 9 13 5 7 1011.2 1011.2 0.0
03/07:00am 26.3 28.4 20.2 69 4.0 S 9 13 5 7 1011.3 1011.3 0.0
03/06:30am 25.7 27.9 20.5 73 3.4 SSE 9 13 5 7 1011.2 1011.2 0.0
03/06:00am 25.0 27.3 19.8 73 3.4 SSE 7 9 4 5 1011.1 1011.1 0.0
03/05:30am 25.4 28.0 20.4 74 3.3 S 7 11 4 6 1010.7 1010.7 0.0
03/05:00am 25.9 28.5 20.5 72 3.5 S 7 9 4 5 1010.6 1010.6 0.0
03/04:30am 25.2 27.0 18.4 66 4.3 ENE 6 9 3 5 1010.5 1010.5 0.0
03/04:00am 25.6 28.6 18.5 65 4.5 CALM 0 0 0 0 1010.3 1010.3 0.0
03/03:30am 25.7 28.7 18.4 64 4.6 CALM 0 0 0 0 1010.0 1010.0 0.0
03/03:00am 25.6 28.3 17.8 62 4.9 CALM 0 0 0 0 1009.9 1009.9 0.0
03/02:30am 25.6 28.2 17.5 61 5.1 CALM 0 0 0 0 1009.8 1009.8 0.0
03/02:00am 26.2 29.1 18.1 61 5.1 CALM 0 0 0 0 1009.8 1009.8 0.0
03/01:30am 25.6 28.2 17.5 61 5.1 CALM 0 0 0 0 1010.0 1010.0 0.0
03/01:00am 26.5 29.0 17.3 57 5.8 CALM 0 0 0 0 1010.0 1010.0 0.0
03/12:30am 26.7 29.3 17.5 57 5.8 CALM 0 0 0 0 1010.4 1010.4 0.0
03/12:00am 27.3 30.0 17.8 56 6.0 CALM 0 0 0 0 1010.7 1010.7 0.0
 
Date/Time
WST
Temp
°C
App
Temp
°C
Dew
Point
Rel
Hum
%
Delta-T
°C
Wind Press
QNH
hPa
Press
MSL
hPa
Rain
since 9 am
mm
Dir
 
Spd
km/h
Gust
km/h
Spd
kts
Gust
kts
02/11:30pm 28.9 30.1 17.4 49 7.3 SSW 7 9 4 5 1010.9 1010.9 0.0
02/11:00pm 28.9 30.0 18.1 52 6.9 SW 9 11 5 6 1011.1 1011.1 0.0
02/10:30pm 28.9 29.5 17.7 50 7.1 WSW 11 13 6 7 1011.1 1011.1 0.0
02/10:00pm 29.9 30.1 17.7 48 7.8 WSW 13 15 7 8 1011.1 1011.1 0.0
02/09:30pm 30.5 30.9 18.9 50 7.5 WSW 15 19 8 10 1011.1 1011.1 0.0
02/09:00pm 30.7 33.2 21.8 59 6.0 WNW 11 17 6 9 1011.3 1011.3 0.0
02/08:30pm 31.1 33.5 23.0 62 5.6 NW 15 20 8 11 1011.3 1011.3 0.0

Other Formats:

Comma delimited format used in spreadsheet applications
http://www.bom.gov.au/fwo/IDW60801/IDW60801.95205.axf

JavaScript Object Notation format (JSON) in row-major order
http://www.bom.gov.au/fwo/IDW60801/IDW60801.95205.json